sensor_id;sensor_type;location;lat;lon;timestamp;P1;durP1;ratioP1;P2;durP2;ratioP2
20336;SDS011;10326;53.660;10.200;2023-06-10T00:02:08;4.85;;;3.40;;
20336;SDS011;10326;53.660;10.200;2023-06-10T00:04:37;6.20;;;3.60;;
20336;SDS011;10326;53.660;10.200;2023-06-10T00:07:04;6.03;;;3.70;;
20336;SDS011;10326;53.660;10.200;2023-06-10T00:09:34;3.85;;;2.72;;
20336;SDS011;10326;53.660;10.200;2023-06-10T00:12:03;4.13;;;3.15;;
20336;SDS011;10326;53.660;10.200;2023-06-10T00:14:32;4.43;;;3.35;;
20336;SDS011;10326;53.660;10.200;2023-06-10T00:16:59;5.18;;;3.28;;
20336;SDS011;10326;53.660;10.200;2023-06-10T00:19:27;4.50;;;2.78;;
20336;SDS011;10326;53.660;10.200;2023-06-10T00:21:57;4.35;;;3.03;;
20336;SDS011;10326;53.660;10.200;2023-06-10T00:24:24;5.00;;;3.33;;
20336;SDS011;10326;53.660;10.200;2023-06-10T00:26:51;4.63;;;3.35;;
20336;SDS011;10326;53.660;10.200;2023-06-10T00:29:19;4.95;;;3.35;;
20336;SDS011;10326;53.660;10.200;2023-06-10T00:31:46;4.95;;;3.10;;
20336;SDS011;10326;53.660;10.200;2023-06-10T00:34:13;5.38;;;3.08;;
20336;SDS011;10326;53.660;10.200;2023-06-10T00:36:41;3.60;;;2.90;;
20336;SDS011;10326;53.660;10.200;2023-06-10T00:39:10;3.80;;;3.00;;
20336;SDS011;10326;53.660;10.200;2023-06-10T00:41:37;4.93;;;2.88;;
20336;SDS011;10326;53.660;10.200;2023-06-10T00:44:04;4.85;;;3.38;;
20336;SDS011;10326;53.660;10.200;2023-06-10T00:46:31;7.22;;;2.85;;
20336;SDS011;10326;53.660;10.200;2023-06-10T00:49:01;3.75;;;2.80;;
20336;SDS011;10326;53.660;10.200;2023-06-10T00:51:29;5.45;;;3.58;;
20336;SDS011;10326;53.660;10.200;2023-06-10T00:53:56;5.22;;;3.03;;
20336;SDS011;10326;53.660;10.200;2023-06-10T00:56:26;4.18;;;2.70;;
20336;SDS011;10326;53.660;10.200;2023-06-10T00:58:54;3.97;;;2.58;;
20336;SDS011;10326;53.660;10.200;2023-06-10T01:01:21;4.93;;;3.03;;
20336;SDS011;10326;53.660;10.200;2023-06-10T01:03:49;6.25;;;3.35;;
20336;SDS011;10326;53.660;10.200;2023-06-10T01:06:18;3.83;;;3.45;;
20336;SDS011;10326;53.660;10.200;2023-06-10T01:09:00;4.50;;;2.90;;
20336;SDS011;10326;53.660;10.200;2023-06-10T01:11:36;4.60;;;3.20;;
20336;SDS011;10326;53.660;10.200;2023-06-10T01:14:10;5.30;;;3.03;;
20336;SDS011;10326;53.660;10.200;2023-06-10T01:16:37;3.50;;;2.60;;
20336;SDS011;10326;53.660;10.200;2023-06-10T01:19:06;5.53;;;2.97;;
20336;SDS011;10326;53.660;10.200;2023-06-10T01:21:36;5.15;;;2.80;;
20336;SDS011;10326;53.660;10.200;2023-06-10T01:26:32;3.63;;;2.40;;
20336;SDS011;10326;53.660;10.200;2023-06-10T01:31:48;4.32;;;2.22;;
20336;SDS011;10326;53.660;10.200;2023-06-10T01:34:22;3.85;;;2.42;;
20336;SDS011;10326;53.660;10.200;2023-06-10T01:36:53;4.63;;;2.38;;
20336;SDS011;10326;53.660;10.200;2023-06-10T01:39:24;4.15;;;2.70;;
20336;SDS011;10326;53.660;10.200;2023-06-10T01:41:52;3.13;;;2.65;;
20336;SDS011;10326;53.660;10.200;2023-06-10T01:44:20;5.25;;;2.80;;
20336;SDS011;10326;53.660;10.200;2023-06-10T01:46:49;3.63;;;2.30;;
20336;SDS011;10326;53.660;10.200;2023-06-10T01:49:16;3.97;;;2.50;;
20336;SDS011;10326;53.660;10.200;2023-06-10T01:51:44;3.65;;;2.33;;
20336;SDS011;10326;53.660;10.200;2023-06-10T01:54:12;4.13;;;2.30;;
20336;SDS011;10326;53.660;10.200;2023-06-10T01:56:39;4.43;;;2.25;;
20336;SDS011;10326;53.660;10.200;2023-06-10T01:59:07;4.22;;;2.30;;
20336;SDS011;10326;53.660;10.200;2023-06-10T02:01:34;4.65;;;2.35;;
20336;SDS011;10326;53.660;10.200;2023-06-10T02:04:02;4.63;;;2.28;;
20336;SDS011;10326;53.660;10.200;2023-06-10T02:06:31;5.07;;;2.38;;
20336;SDS011;10326;53.660;10.200;2023-06-10T02:08:59;3.53;;;2.45;;
20336;SDS011;10326;53.660;10.200;2023-06-10T02:11:29;3.85;;;2.17;;
20336;SDS011;10326;53.660;10.200;2023-06-10T02:13:57;3.35;;;2.85;;
20336;SDS011;10326;53.660;10.200;2023-06-10T02:16:24;2.95;;;2.10;;
20336;SDS011;10326;53.660;10.200;2023-06-10T02:18:51;5.25;;;2.30;;
20336;SDS011;10326;53.660;10.200;2023-06-10T02:21:19;4.50;;;2.38;;
20336;SDS011;10326;53.660;10.200;2023-06-10T02:23:47;6.07;;;2.47;;
20336;SDS011;10326;53.660;10.200;2023-06-10T02:26:16;4.10;;;2.50;;
20336;SDS011;10326;53.660;10.200;2023-06-10T02:28:44;3.83;;;2.22;;
20336;SDS011;10326;53.660;10.200;2023-06-10T02:31:13;3.25;;;2.20;;
20336;SDS011;10326;53.660;10.200;2023-06-10T02:33:43;4.38;;;2.10;;
20336;SDS011;10326;53.660;10.200;2023-06-10T02:36:11;3.95;;;1.95;;
20336;SDS011;10326;53.660;10.200;2023-06-10T02:38:40;5.97;;;2.20;;
20336;SDS011;10326;53.660;10.200;2023-06-10T02:41:08;4.82;;;2.75;;
20336;SDS011;10326;53.660;10.200;2023-06-10T02:43:35;3.70;;;2.13;;
20336;SDS011;10326;53.660;10.200;2023-06-10T02:46:04;3.78;;;2.13;;
20336;SDS011;10326;53.660;10.200;2023-06-10T02:48:34;3.08;;;1.85;;
20336;SDS011;10326;53.660;10.200;2023-06-10T02:51:10;4.03;;;2.03;;
20336;SDS011;10326;53.660;10.200;2023-06-10T02:53:41;2.85;;;2.20;;
20336;SDS011;10326;53.660;10.200;2023-06-10T02:56:10;3.97;;;2.15;;
20336;SDS011;10326;53.660;10.200;2023-06-10T02:58:39;3.50;;;2.20;;
20336;SDS011;10326;53.660;10.200;2023-06-10T03:01:10;4.95;;;2.33;;
20336;SDS011;10326;53.660;10.200;2023-06-10T03:03:55;4.43;;;2.30;;
20336;SDS011;10326;53.660;10.200;2023-06-10T03:06:22;4.28;;;2.20;;
20336;SDS011;10326;53.660;10.200;2023-06-10T03:08:56;5.65;;;2.28;;
20336;SDS011;10326;53.660;10.200;2023-06-10T03:11:23;4.15;;;2.10;;
20336;SDS011;10326;53.660;10.200;2023-06-10T03:13:51;3.47;;;2.28;;
20336;SDS011;10326;53.660;10.200;2023-06-10T03:16:21;4.82;;;2.13;;
20336;SDS011;10326;53.660;10.200;2023-06-10T03:18:50;2.92;;;2.00;;
20336;SDS011;10326;53.660;10.200;2023-06-10T03:21:18;4.35;;;2.22;;
20336;SDS011;10326;53.660;10.200;2023-06-10T03:23:46;5.85;;;2.22;;
20336;SDS011;10326;53.660;10.200;2023-06-10T03:26:15;3.70;;;2.13;;
20336;SDS011;10326;53.660;10.200;2023-06-10T03:28:46;3.28;;;2.00;;
20336;SDS011;10326;53.660;10.200;2023-06-10T03:31:14;4.63;;;2.30;;
20336;SDS011;10326;53.660;10.200;2023-06-10T03:33:44;4.25;;;2.15;;
20336;SDS011;10326;53.660;10.200;2023-06-10T03:36:12;4.20;;;1.98;;
20336;SDS011;10326;53.660;10.200;2023-06-10T03:38:39;3.15;;;1.85;;
20336;SDS011;10326;53.660;10.200;2023-06-10T03:41:07;3.80;;;2.03;;
20336;SDS011;10326;53.660;10.200;2023-06-10T03:43:37;4.22;;;1.90;;
20336;SDS011;10326;53.660;10.200;2023-06-10T03:46:06;5.15;;;1.90;;
20336;SDS011;10326;53.660;10.200;2023-06-10T03:48:34;3.53;;;2.35;;
20336;SDS011;10326;53.660;10.200;2023-06-10T03:51:04;3.70;;;1.88;;
20336;SDS011;10326;53.660;10.200;2023-06-10T03:53:31;3.45;;;1.80;;
20336;SDS011;10326;53.660;10.200;2023-06-10T03:55:59;5.60;;;2.20;;
20336;SDS011;10326;53.660;10.200;2023-06-10T03:58:28;6.10;;;1.90;;
20336;SDS011;10326;53.660;10.200;2023-06-10T04:00:55;5.13;;;2.10;;
20336;SDS011;10326;53.660;10.200;2023-06-10T04:03:31;7.60;;;2.30;;
20336;SDS011;10326;53.660;10.200;2023-06-10T04:05:58;3.97;;;2.20;;
20336;SDS011;10326;53.660;10.200;2023-06-10T04:08:27;3.83;;;1.92;;
20336;SDS011;10326;53.660;10.200;2023-06-10T04:10:57;4.55;;;2.20;;
20336;SDS011;10326;53.660;10.200;2023-06-10T04:13:26;5.85;;;2.05;;
20336;SDS011;10326;53.660;10.200;2023-06-10T04:15:56;3.38;;;2.10;;
20336;SDS011;10326;53.660;10.200;2023-06-10T04:18:24;4.80;;;2.15;;
20336;SDS011;10326;53.660;10.200;2023-06-10T04:20:54;5.13;;;2.88;;
20336;SDS011;10326;53.660;10.200;2023-06-10T04:23:22;4.53;;;2.10;;
20336;SDS011;10326;53.660;10.200;2023-06-10T04:25:51;3.53;;;2.20;;
20336;SDS011;10326;53.660;10.200;2023-06-10T04:28:19;3.58;;;2.00;;
20336;SDS011;10326;53.660;10.200;2023-06-10T04:30:47;5.72;;;2.40;;
20336;SDS011;10326;53.660;10.200;2023-06-10T04:33:15;4.75;;;2.00;;
20336;SDS011;10326;53.660;10.200;2023-06-10T04:35:42;4.75;;;2.15;;
20336;SDS011;10326;53.660;10.200;2023-06-10T04:38:12;5.30;;;2.10;;
20336;SDS011;10326;53.660;10.200;2023-06-10T04:40:40;3.50;;;1.90;;
20336;SDS011;10326;53.660;10.200;2023-06-10T04:43:09;4.63;;;2.30;;
20336;SDS011;10326;53.660;10.200;2023-06-10T04:45:37;5.30;;;1.95;;
20336;SDS011;10326;53.660;10.200;2023-06-10T04:48:05;4.32;;;2.13;;
20336;SDS011;10326;53.660;10.200;2023-06-10T04:50:33;5.85;;;2.40;;
20336;SDS011;10326;53.660;10.200;2023-06-10T04:53:00;5.05;;;2.25;;
20336;SDS011;10326;53.660;10.200;2023-06-10T04:55:28;4.63;;;2.25;;
20336;SDS011;10326;53.660;10.200;2023-06-10T04:57:56;4.05;;;1.95;;
20336;SDS011;10326;53.660;10.200;2023-06-10T05:00:25;4.13;;;2.28;;
20336;SDS011;10326;53.660;10.200;2023-06-10T05:02:52;3.47;;;2.17;;
20336;SDS011;10326;53.660;10.200;2023-06-10T05:05:19;3.83;;;1.95;;
20336;SDS011;10326;53.660;10.200;2023-06-10T05:07:46;4.72;;;2.28;;
20336;SDS011;10326;53.660;10.200;2023-06-10T05:10:13;4.20;;;2.15;;
20336;SDS011;10326;53.660;10.200;2023-06-10T05:12:40;5.47;;;1.90;;
20336;SDS011;10326;53.660;10.200;2023-06-10T05:15:08;2.97;;;2.05;;
20336;SDS011;10326;53.660;10.200;2023-06-10T05:17:39;5.30;;;2.28;;
20336;SDS011;10326;53.660;10.200;2023-06-10T05:20:06;4.03;;;2.10;;
20336;SDS011;10326;53.660;10.200;2023-06-10T05:22:34;3.65;;;1.98;;
20336;SDS011;10326;53.660;10.200;2023-06-10T05:25:01;3.15;;;2.10;;
20336;SDS011;10326;53.660;10.200;2023-06-10T05:27:29;5.18;;;2.28;;
20336;SDS011;10326;53.660;10.200;2023-06-10T05:29:56;5.65;;;2.13;;
20336;SDS011;10326;53.660;10.200;2023-06-10T05:32:23;5.20;;;2.17;;
20336;SDS011;10326;53.660;10.200;2023-06-10T05:34:52;3.88;;;1.80;;
20336;SDS011;10326;53.660;10.200;2023-06-10T05:37:20;3.25;;;1.80;;
20336;SDS011;10326;53.660;10.200;2023-06-10T05:39:47;3.88;;;1.70;;
20336;SDS011;10326;53.660;10.200;2023-06-10T05:42:14;2.80;;;1.70;;
20336;SDS011;10326;53.660;10.200;2023-06-10T05:44:41;4.32;;;2.45;;
20336;SDS011;10326;53.660;10.200;2023-06-10T05:47:08;3.65;;;1.80;;
20336;SDS011;10326;53.660;10.200;2023-06-10T05:49:35;5.28;;;2.10;;
20336;SDS011;10326;53.660;10.200;2023-06-10T05:52:05;6.07;;;2.05;;
20336;SDS011;10326;53.660;10.200;2023-06-10T05:54:32;4.45;;;2.03;;
20336;SDS011;10326;53.660;10.200;2023-06-10T05:57:00;5.40;;;2.20;;
20336;SDS011;10326;53.660;10.200;2023-06-10T05:59:28;4.10;;;1.90;;
20336;SDS011;10326;53.660;10.200;2023-06-10T06:01:55;4.30;;;1.95;;
20336;SDS011;10326;53.660;10.200;2023-06-10T06:04:22;4.40;;;1.95;;
20336;SDS011;10326;53.660;10.200;2023-06-10T06:06:49;4.78;;;2.20;;
20336;SDS011;10326;53.660;10.200;2023-06-10T06:09:18;5.13;;;2.28;;
20336;SDS011;10326;53.660;10.200;2023-06-10T06:11:45;5.88;;;1.80;;
20336;SDS011;10326;53.660;10.200;2023-06-10T06:14:12;3.38;;;1.58;;
20336;SDS011;10326;53.660;10.200;2023-06-10T06:16:41;4.03;;;2.00;;
20336;SDS011;10326;53.660;10.200;2023-06-10T06:19:08;5.13;;;2.10;;
20336;SDS011;10326;53.660;10.200;2023-06-10T06:21:36;3.72;;;1.85;;
20336;SDS011;10326;53.660;10.200;2023-06-10T06:24:03;6.05;;;2.03;;
20336;SDS011;10326;53.660;10.200;2023-06-10T06:26:33;3.75;;;2.10;;
20336;SDS011;10326;53.660;10.200;2023-06-10T06:29:00;5.25;;;2.10;;
20336;SDS011;10326;53.660;10.200;2023-06-10T06:31:27;3.38;;;1.85;;
20336;SDS011;10326;53.660;10.200;2023-06-10T06:33:55;4.22;;;1.85;;
20336;SDS011;10326;53.660;10.200;2023-06-10T06:36:22;3.70;;;1.80;;
20336;SDS011;10326;53.660;10.200;2023-06-10T06:38:49;6.00;;;2.22;;
20336;SDS011;10326;53.660;10.200;2023-06-10T06:41:17;3.60;;;1.95;;
20336;SDS011;10326;53.660;10.200;2023-06-10T06:43:46;3.33;;;1.80;;
20336;SDS011;10326;53.660;10.200;2023-06-10T06:46:23;2.60;;;1.80;;
20336;SDS011;10326;53.660;10.200;2023-06-10T06:48:50;4.60;;;1.83;;
20336;SDS011;10326;53.660;10.200;2023-06-10T06:51:17;4.30;;;1.77;;
20336;SDS011;10326;53.660;10.200;2023-06-10T06:53:45;3.75;;;1.77;;
20336;SDS011;10326;53.660;10.200;2023-06-10T06:56:12;4.22;;;2.40;;
20336;SDS011;10326;53.660;10.200;2023-06-10T06:58:40;4.30;;;1.98;;
20336;SDS011;10326;53.660;10.200;2023-06-10T07:01:09;4.63;;;1.95;;
20336;SDS011;10326;53.660;10.200;2023-06-10T07:03:36;5.70;;;2.20;;
20336;SDS011;10326;53.660;10.200;2023-06-10T07:06:03;4.35;;;1.95;;
20336;SDS011;10326;53.660;10.200;2023-06-10T07:08:31;4.18;;;1.70;;
20336;SDS011;10326;53.660;10.200;2023-06-10T07:10:58;4.25;;;2.20;;
20336;SDS011;10326;53.660;10.200;2023-06-10T07:13:25;4.85;;;1.90;;
20336;SDS011;10326;53.660;10.200;2023-06-10T07:15:52;5.57;;;2.03;;
20336;SDS011;10326;53.660;10.200;2023-06-10T07:18:21;4.97;;;2.10;;
20336;SDS011;10326;53.660;10.200;2023-06-10T07:20:48;7.32;;;2.17;;
20336;SDS011;10326;53.660;10.200;2023-06-10T07:23:17;2.92;;;1.83;;
20336;SDS011;10326;53.660;10.200;2023-06-10T07:25:44;4.60;;;1.83;;
20336;SDS011;10326;53.660;10.200;2023-06-10T07:28:11;4.38;;;2.25;;
20336;SDS011;10326;53.660;10.200;2023-06-10T07:30:38;3.55;;;1.90;;
20336;SDS011;10326;53.660;10.200;2023-06-10T07:33:05;4.97;;;1.75;;
20336;SDS011;10326;53.660;10.200;2023-06-10T07:35:34;5.90;;;1.98;;
20336;SDS011;10326;53.660;10.200;2023-06-10T07:38:01;3.47;;;2.03;;
20336;SDS011;10326;53.660;10.200;2023-06-10T07:40:28;5.28;;;2.47;;
20336;SDS011;10326;53.660;10.200;2023-06-10T07:42:56;4.18;;;2.30;;
20336;SDS011;10326;53.660;10.200;2023-06-10T07:45:23;8.65;;;2.30;;
20336;SDS011;10326;53.660;10.200;2023-06-10T07:47:50;3.45;;;2.00;;
20336;SDS011;10326;53.660;10.200;2023-06-10T07:50:17;4.00;;;2.40;;
20336;SDS011;10326;53.660;10.200;2023-06-10T07:52:46;5.47;;;2.13;;
20336;SDS011;10326;53.660;10.200;2023-06-10T07:55:13;4.78;;;2.30;;
20336;SDS011;10326;53.660;10.200;2023-06-10T07:57:40;6.32;;;2.70;;
20336;SDS011;10326;53.660;10.200;2023-06-10T08:00:09;6.13;;;2.58;;
20336;SDS011;10326;53.660;10.200;2023-06-10T08:02:40;4.55;;;2.38;;
20336;SDS011;10326;53.660;10.200;2023-06-10T08:05:07;3.88;;;2.20;;
20336;SDS011;10326;53.660;10.200;2023-06-10T08:07:35;5.82;;;3.20;;
20336;SDS011;10326;53.660;10.200;2023-06-10T08:10:04;2.67;;;2.13;;
20336;SDS011;10326;53.660;10.200;2023-06-10T08:12:32;4.15;;;2.35;;
20336;SDS011;10326;53.660;10.200;2023-06-10T08:15:00;3.58;;;2.40;;
20336;SDS011;10326;53.660;10.200;2023-06-10T08:17:29;5.95;;;2.50;;
20336;SDS011;10326;53.660;10.200;2023-06-10T08:19:56;4.10;;;2.30;;
20336;SDS011;10326;53.660;10.200;2023-06-10T08:22:23;4.32;;;2.20;;
20336;SDS011;10326;53.660;10.200;2023-06-10T08:24:51;5.00;;;2.53;;
20336;SDS011;10326;53.660;10.200;2023-06-10T08:27:19;4.93;;;2.42;;
20336;SDS011;10326;53.660;10.200;2023-06-10T08:29:47;5.63;;;2.40;;
20336;SDS011;10326;53.660;10.200;2023-06-10T08:32:14;6.38;;;2.65;;
20336;SDS011;10326;53.660;10.200;2023-06-10T08:34:42;6.93;;;2.80;;
20336;SDS011;10326;53.660;10.200;2023-06-10T08:37:09;4.93;;;2.47;;
20336;SDS011;10326;53.660;10.200;2023-06-10T08:39:36;4.20;;;2.45;;
20336;SDS011;10326;53.660;10.200;2023-06-10T08:42:09;4.78;;;2.33;;
20336;SDS011;10326;53.660;10.200;2023-06-10T08:44:48;4.90;;;2.40;;
20336;SDS011;10326;53.660;10.200;2023-06-10T08:47:19;6.38;;;2.60;;
20336;SDS011;10326;53.660;10.200;2023-06-10T08:49:49;4.07;;;2.20;;
20336;SDS011;10326;53.660;10.200;2023-06-10T08:52:19;4.53;;;2.25;;
20336;SDS011;10326;53.660;10.200;2023-06-10T08:54:48;4.75;;;2.45;;
20336;SDS011;10326;53.660;10.200;2023-06-10T08:57:24;4.95;;;2.40;;
20336;SDS011;10326;53.660;10.200;2023-06-10T08:59:53;5.30;;;2.75;;
20336;SDS011;10326;53.660;10.200;2023-06-10T09:02:22;4.95;;;2.67;;
20336;SDS011;10326;53.660;10.200;2023-06-10T09:04:51;5.63;;;2.58;;
20336;SDS011;10326;53.660;10.200;2023-06-10T09:07:18;5.38;;;2.58;;
20336;SDS011;10326;53.660;10.200;2023-06-10T09:09:46;5.50;;;2.55;;
20336;SDS011;10326;53.660;10.200;2023-06-10T09:12:15;4.95;;;2.25;;
20336;SDS011;10326;53.660;10.200;2023-06-10T09:14:44;4.30;;;2.55;;
20336;SDS011;10326;53.660;10.200;2023-06-10T09:17:11;5.75;;;2.63;;
20336;SDS011;10326;53.660;10.200;2023-06-10T09:19:38;6.72;;;2.80;;
20336;SDS011;10326;53.660;10.200;2023-06-10T09:22:08;4.85;;;2.67;;
20336;SDS011;10326;53.660;10.200;2023-06-10T09:24:35;7.20;;;2.80;;
20336;SDS011;10326;53.660;10.200;2023-06-10T09:27:02;4.72;;;2.60;;
20336;SDS011;10326;53.660;10.200;2023-06-10T09:29:31;4.25;;;2.53;;
20336;SDS011;10326;53.660;10.200;2023-06-10T09:32:01;4.78;;;2.78;;
20336;SDS011;10326;53.660;10.200;2023-06-10T09:34:29;4.93;;;3.03;;
20336;SDS011;10326;53.660;10.200;2023-06-10T09:36:58;5.10;;;2.53;;
20336;SDS011;10326;53.660;10.200;2023-06-10T09:39:25;4.47;;;2.53;;
20336;SDS011;10326;53.660;10.200;2023-06-10T09:41:55;4.03;;;2.58;;
20336;SDS011;10326;53.660;10.200;2023-06-10T09:44:22;5.72;;;2.83;;
20336;SDS011;10326;53.660;10.200;2023-06-10T09:46:50;5.40;;;2.58;;
20336;SDS011;10326;53.660;10.200;2023-06-10T09:49:21;6.80;;;3.30;;
20336;SDS011;10326;53.660;10.200;2023-06-10T09:51:49;5.70;;;2.45;;
20336;SDS011;10326;53.660;10.200;2023-06-10T09:54:17;7.50;;;2.88;;
20336;SDS011;10326;53.660;10.200;2023-06-10T09:56:46;4.65;;;2.78;;
20336;SDS011;10326;53.660;10.200;2023-06-10T09:59:15;4.40;;;2.63;;
20336;SDS011;10326;53.660;10.200;2023-06-10T10:01:42;4.93;;;2.75;;
20336;SDS011;10326;53.660;10.200;2023-06-10T10:04:10;4.57;;;2.97;;
20336;SDS011;10326;53.660;10.200;2023-06-10T10:06:38;4.75;;;3.17;;
20336;SDS011;10326;53.660;10.200;2023-06-10T10:09:06;5.53;;;3.30;;
20336;SDS011;10326;53.660;10.200;2023-06-10T10:11:34;5.32;;;2.58;;
20336;SDS011;10326;53.660;10.200;2023-06-10T10:14:02;5.15;;;3.05;;
20336;SDS011;10326;53.660;10.200;2023-06-10T10:16:33;6.25;;;2.95;;
20336;SDS011;10326;53.660;10.200;2023-06-10T10:19:07;6.05;;;3.20;;
20336;SDS011;10326;53.660;10.200;2023-06-10T10:21:44;4.90;;;2.92;;
20336;SDS011;10326;53.660;10.200;2023-06-10T10:24:20;6.78;;;2.70;;
20336;SDS011;10326;53.660;10.200;2023-06-10T10:26:50;5.93;;;3.00;;
20336;SDS011;10326;53.660;10.200;2023-06-10T10:29:23;4.95;;;3.00;;
20336;SDS011;10326;53.660;10.200;2023-06-10T10:31:56;4.97;;;2.97;;
20336;SDS011;10326;53.660;10.200;2023-06-10T10:34:27;4.05;;;2.90;;
20336;SDS011;10326;53.660;10.200;2023-06-10T10:37:02;5.20;;;2.80;;
20336;SDS011;10326;53.660;10.200;2023-06-10T10:39:30;5.72;;;2.38;;
20336;SDS011;10326;53.660;10.200;2023-06-10T10:41:59;5.60;;;2.70;;
20336;SDS011;10326;53.660;10.200;2023-06-10T10:44:29;5.25;;;3.08;;
20336;SDS011;10326;53.660;10.200;2023-06-10T10:46:56;5.63;;;3.03;;
20336;SDS011;10326;53.660;10.200;2023-06-10T10:49:28;4.15;;;2.53;;
20336;SDS011;10326;53.660;10.200;2023-06-10T10:51:57;4.55;;;2.58;;
20336;SDS011;10326;53.660;10.200;2023-06-10T10:54:31;4.35;;;3.10;;
20336;SDS011;10326;53.660;10.200;2023-06-10T10:57:13;7.25;;;3.10;;
20336;SDS011;10326;53.660;10.200;2023-06-10T10:59:45;5.68;;;3.88;;
20336;SDS011;10326;53.660;10.200;2023-06-10T11:02:40;5.25;;;3.05;;
20336;SDS011;10326;53.660;10.200;2023-06-10T11:05:09;5.13;;;3.00;;
20336;SDS011;10326;53.660;10.200;2023-06-10T11:07:39;5.47;;;3.28;;
20336;SDS011;10326;53.660;10.200;2023-06-10T11:10:08;4.32;;;3.17;;
20336;SDS011;10326;53.660;10.200;2023-06-10T11:12:41;5.75;;;3.20;;
20336;SDS011;10326;53.660;10.200;2023-06-10T11:15:19;3.40;;;3.10;;
20336;SDS011;10326;53.660;10.200;2023-06-10T11:18:07;5.80;;;3.00;;
20336;SDS011;10326;53.660;10.200;2023-06-10T11:20:42;5.88;;;3.50;;
20336;SDS011;10326;53.660;10.200;2023-06-10T11:23:33;5.05;;;2.92;;
20336;SDS011;10326;53.660;10.200;2023-06-10T11:26:12;4.78;;;3.00;;
20336;SDS011;10326;53.660;10.200;2023-06-10T11:31:38;4.78;;;3.42;;
20336;SDS011;10326;53.660;10.200;2023-06-10T11:34:07;4.55;;;2.80;;
20336;SDS011;10326;53.660;10.200;2023-06-10T11:36:36;5.30;;;2.75;;
20336;SDS011;10326;53.660;10.200;2023-06-10T11:39:08;4.40;;;2.88;;
20336;SDS011;10326;53.660;10.200;2023-06-10T11:41:37;6.38;;;2.85;;
20336;SDS011;10326;53.660;10.200;2023-06-10T11:44:07;4.80;;;3.03;;
20336;SDS011;10326;53.660;10.200;2023-06-10T11:46:37;4.13;;;2.53;;
20336;SDS011;10326;53.660;10.200;2023-06-10T11:49:04;5.78;;;3.33;;
20336;SDS011;10326;53.660;10.200;2023-06-10T11:51:33;4.60;;;2.78;;
20336;SDS011;10326;53.660;10.200;2023-06-10T11:54:02;4.82;;;3.10;;
20336;SDS011;10326;53.660;10.200;2023-06-10T11:56:30;4.88;;;2.65;;
20336;SDS011;10326;53.660;10.200;2023-06-10T11:59:00;6.53;;;3.22;;
20336;SDS011;10326;53.660;10.200;2023-06-10T12:01:31;4.70;;;3.00;;
20336;SDS011;10326;53.660;10.200;2023-06-10T12:04:00;4.32;;;2.55;;
20336;SDS011;10326;53.660;10.200;2023-06-10T12:06:42;5.03;;;3.10;;
20336;SDS011;10326;53.660;10.200;2023-06-10T12:09:18;5.35;;;2.83;;
20336;SDS011;10326;53.660;10.200;2023-06-10T12:11:48;5.88;;;3.20;;
20336;SDS011;10326;53.660;10.200;2023-06-10T12:17:21;6.80;;;2.97;;
20336;SDS011;10326;53.660;10.200;2023-06-10T12:19:50;5.80;;;3.40;;
20336;SDS011;10326;53.660;10.200;2023-06-10T12:22:17;5.18;;;2.60;;
20336;SDS011;10326;53.660;10.200;2023-06-10T12:24:45;5.22;;;2.72;;
20336;SDS011;10326;53.660;10.200;2023-06-10T12:27:25;4.75;;;3.30;;
20336;SDS011;10326;53.660;10.200;2023-06-10T12:29:56;4.30;;;3.25;;
20336;SDS011;10326;53.660;10.200;2023-06-10T12:32:34;4.35;;;3.47;;
20336;SDS011;10326;53.660;10.200;2023-06-10T12:35:03;4.65;;;2.72;;
20336;SDS011;10326;53.660;10.200;2023-06-10T12:37:32;4.57;;;2.78;;
20336;SDS011;10326;53.660;10.200;2023-06-10T12:39:59;3.83;;;2.85;;
20336;SDS011;10326;53.660;10.200;2023-06-10T12:42:28;6.30;;;2.95;;
20336;SDS011;10326;53.660;10.200;2023-06-10T12:44:57;4.45;;;2.90;;
20336;SDS011;10326;53.660;10.200;2023-06-10T12:47:29;6.00;;;3.15;;
20336;SDS011;10326;53.660;10.200;2023-06-10T12:49:58;4.63;;;2.70;;
20336;SDS011;10326;53.660;10.200;2023-06-10T12:52:25;5.97;;;2.60;;
20336;SDS011;10326;53.660;10.200;2023-06-10T12:54:53;4.35;;;2.55;;
20336;SDS011;10326;53.660;10.200;2023-06-10T12:57:20;5.55;;;2.67;;
20336;SDS011;10326;53.660;10.200;2023-06-10T12:59:47;6.18;;;2.90;;
20336;SDS011;10326;53.660;10.200;2023-06-10T13:02:20;7.55;;;2.95;;
20336;SDS011;10326;53.660;10.200;2023-06-10T13:04:49;4.75;;;2.40;;
20336;SDS011;10326;53.660;10.200;2023-06-10T13:07:16;3.50;;;2.50;;
20336;SDS011;10326;53.660;10.200;2023-06-10T13:09:43;7.20;;;2.75;;
20336;SDS011;10326;53.660;10.200;2023-06-10T13:12:13;4.57;;;2.40;;
20336;SDS011;10326;53.660;10.200;2023-06-10T13:14:42;5.22;;;2.80;;
20336;SDS011;10326;53.660;10.200;2023-06-10T13:17:11;4.68;;;2.78;;
20336;SDS011;10326;53.660;10.200;2023-06-10T13:19:39;4.90;;;2.60;;
20336;SDS011;10326;53.660;10.200;2023-06-10T13:22:07;5.75;;;2.50;;
20336;SDS011;10326;53.660;10.200;2023-06-10T13:24:34;5.07;;;2.95;;
20336;SDS011;10326;53.660;10.200;2023-06-10T13:27:02;4.25;;;2.60;;
20336;SDS011;10326;53.660;10.200;2023-06-10T13:29:31;5.55;;;2.80;;
20336;SDS011;10326;53.660;10.200;2023-06-10T13:31:58;5.80;;;2.40;;
20336;SDS011;10326;53.660;10.200;2023-06-10T13:34:25;5.28;;;2.53;;
20336;SDS011;10326;53.660;10.200;2023-06-10T13:36:54;6.72;;;2.63;;
20336;SDS011;10326;53.660;10.200;2023-06-10T13:39:21;4.78;;;2.30;;
20336;SDS011;10326;53.660;10.200;2023-06-10T13:41:48;6.35;;;2.58;;
20336;SDS011;10326;53.660;10.200;2023-06-10T13:44:17;5.07;;;2.88;;
20336;SDS011;10326;53.660;10.200;2023-06-10T13:46:44;3.92;;;2.30;;
20336;SDS011;10326;53.660;10.200;2023-06-10T13:49:11;5.63;;;2.50;;
20336;SDS011;10326;53.660;10.200;2023-06-10T13:51:39;6.32;;;2.55;;
20336;SDS011;10326;53.660;10.200;2023-06-10T13:54:07;4.55;;;2.55;;
20336;SDS011;10326;53.660;10.200;2023-06-10T13:56:34;4.85;;;2.58;;
20336;SDS011;10326;53.660;10.200;2023-06-10T13:59:03;7.05;;;2.55;;
20336;SDS011;10326;53.660;10.200;2023-06-10T14:01:30;4.57;;;2.47;;
20336;SDS011;10326;53.660;10.200;2023-06-10T14:03:57;5.43;;;2.60;;
20336;SDS011;10326;53.660;10.200;2023-06-10T14:06:25;6.80;;;2.45;;
20336;SDS011;10326;53.660;10.200;2023-06-10T14:08:53;5.82;;;2.88;;
20336;SDS011;10326;53.660;10.200;2023-06-10T14:11:22;5.85;;;2.72;;
20336;SDS011;10326;53.660;10.200;2023-06-10T14:13:50;4.85;;;2.60;;
20336;SDS011;10326;53.660;10.200;2023-06-10T14:16:18;4.47;;;2.30;;
20336;SDS011;10326;53.660;10.200;2023-06-10T14:18:46;6.47;;;2.83;;
20336;SDS011;10326;53.660;10.200;2023-06-10T14:21:13;5.63;;;2.55;;
20336;SDS011;10326;53.660;10.200;2023-06-10T14:23:40;5.43;;;2.65;;
20336;SDS011;10326;53.660;10.200;2023-06-10T14:26:08;6.57;;;2.40;;
20336;SDS011;10326;53.660;10.200;2023-06-10T14:28:38;4.88;;;2.67;;
20336;SDS011;10326;53.660;10.200;2023-06-10T14:31:05;5.05;;;2.42;;
20336;SDS011;10326;53.660;10.200;2023-06-10T14:33:32;5.22;;;2.85;;
20336;SDS011;10326;53.660;10.200;2023-06-10T14:38:27;4.68;;;2.35;;
20336;SDS011;10326;53.660;10.200;2023-06-10T14:40:54;5.63;;;2.65;;
20336;SDS011;10326;53.660;10.200;2023-06-10T14:43:21;4.60;;;2.50;;
20336;SDS011;10326;53.660;10.200;2023-06-10T14:45:49;2.88;;;2.40;;
20336;SDS011;10326;53.660;10.200;2023-06-10T14:48:17;5.25;;;2.50;;
20336;SDS011;10326;53.660;10.200;2023-06-10T14:50:44;4.30;;;2.70;;
20336;SDS011;10326;53.660;10.200;2023-06-10T14:53:15;4.97;;;2.80;;
20336;SDS011;10326;53.660;10.200;2023-06-10T14:55:43;4.57;;;2.65;;
20336;SDS011;10326;53.660;10.200;2023-06-10T14:58:10;5.10;;;2.63;;